Time;durP1;ratioP1;P1;durP2;ratioP2;P2;SDS_P1;SDS_P2;PMS_P1;PMS_P2;Temp;Humidity;BMP_temperature;BMP_pressure;BME280_temperature;BME280_humidity;BME280_pressure;Samples;Min_cycle;Max_cycle;Signal;HPM_P1;HPM_P2
2023/01/27 00:02:16;;;;;;;15.77;14.27;;;;;;;0.24;100.00;91908.09;4992068;28;20196;-76
2023/01/27 00:04:41;;;;;;;15.83;14.23;;;;;;;0.09;100.00;91907.09;4991189;28;20220;-76
2023/01/27 00:07:06;;;;;;;15.00;13.83;;;;;;;0.19;100.00;91902.88;4992052;28;20236;-76
2023/01/27 00:09:32;;;;;;;14.63;13.23;;;;;;;0.22;100.00;91909.34;4991112;28;20287;-75
2023/01/27 00:14:41;;;;;;;15.53;14.10;;;;;;;0.21;100.00;91903.44;4990082;28;20238;-75
2023/01/27 00:17:06;;;;;;;16.47;14.87;;;;;;;-0.21;100.00;91879.16;4989933;28;20882;-76
2023/01/27 00:19:31;;;;;;;17.30;15.43;;;;;;;0.22;100.00;91884.44;4995951;28;20226;-75
2023/01/27 00:24:42;;;;;;;16.20;14.67;;;;;;;0.15;100.00;91881.28;5010775;28;20258;-76
2023/01/27 00:27:08;;;;;;;16.87;14.67;;;;;;;-0.01;100.00;91879.47;5010955;28;20188;-76
2023/01/27 00:29:37;;;;;;;16.03;14.40;;;;;;;0.05;100.00;91863.16;5009303;28;20258;-76
2023/01/27 00:34:50;;;;;;;16.50;14.80;;;;;;;0.12;100.00;91884.31;5010313;28;20274;-76
2023/01/27 00:37:15;;;;;;;18.40;16.17;;;;;;;0.10;100.00;91886.31;5010307;28;20179;-76
2023/01/27 00:39:41;;;;;;;16.80;15.10;;;;;;;0.17;100.00;91886.97;5009566;28;20246;-76
2023/01/27 00:42:06;;;;;;;17.90;16.03;;;;;;;0.19;100.00;91879.78;5009344;28;20195;-76
2023/01/27 00:44:32;;;;;;;17.83;15.87;;;;;;;0.13;100.00;91885.06;5010366;28;20245;-76
2023/01/27 00:46:57;;;;;;;16.37;14.07;;;;;;;0.26;100.00;91889.91;5010554;28;20191;-75
2023/01/27 00:49:22;;;;;;;16.37;14.67;;;;;;;0.15;100.00;91883.84;5010119;28;20246;-76
2023/01/27 00:51:48;;;;;;;18.27;16.40;;;;;;;0.01;100.00;91872.34;5009499;28;20281;-76
2023/01/27 00:54:13;;;;;;;17.80;16.07;;;;;;;0.00;100.00;91881.06;5009998;28;20227;-76
2023/01/27 00:56:39;;;;;;;19.10;16.53;;;;;;;0.04;100.00;91887.25;5009283;28;20210;-76
2023/01/27 00:59:05;;;;;;;17.23;15.43;;;;;;;0.22;100.00;91889.59;5009963;28;20199;-81
2023/01/27 01:01:31;;;;;;;19.43;16.67;;;;;;;0.23;100.00;91886.03;5010242;28;20194;-75
2023/01/27 01:03:59;;;;;;;17.53;15.70;;;;;;;0.56;100.00;91891.09;5009192;28;20222;-75
2023/01/27 01:06:26;;;;;;;18.37;16.47;;;;;;;0.38;100.00;91885.44;5009200;28;20211;-74
2023/01/27 01:08:52;;;;;;;19.10;17.30;;;;;;;0.23;100.00;91882.66;5008210;28;20949;-74
2023/01/27 01:11:19;;;;;;;19.93;17.90;;;;;;;0.19;100.00;91874.66;5009765;28;20188;-74
2023/01/27 01:13:45;;;;;;;17.90;16.10;;;;;;;0.23;100.00;91890.38;5008944;28;20203;-74
2023/01/27 01:16:14;;;;;;;18.37;16.47;;;;;;;0.19;100.00;91889.28;5009137;28;20223;-75
2023/01/27 01:18:40;;;;;;;18.23;16.13;;;;;;;0.12;100.00;91884.31;5008366;28;20283;-74
2023/01/27 01:21:06;;;;;;;20.07;16.97;;;;;;;0.25;100.00;91889.09;5005609;28;20287;-74
2023/01/27 01:23:32;;;;;;;21.47;18.00;;;;;;;0.12;100.00;91884.31;5009632;28;20874;-75
2023/01/27 01:25:58;;;;;;;19.53;16.47;;;;;;;0.05;100.00;91875.97;5009530;28;20254;-75
2023/01/27 01:28:25;;;;;;;22.17;16.63;;;;;;;0.13;100.00;91883.28;5007829;28;20423;-74
2023/01/27 01:30:50;;;;;;;18.47;15.47;;;;;;;0.02;100.00;91884.13;5009591;28;20233;-74
2023/01/27 01:33:19;;;;;;;18.33;16.33;;;;;;;0.16;100.00;91887.94;5008157;28;20274;-75
2023/01/27 01:35:46;;;;;;;17.90;16.07;;;;;;;0.03;100.00;91888.28;5008254;28;20287;-74
2023/01/27 01:38:13;;;;;;;18.07;16.27;;;;;;;-0.04;100.00;91865.34;5009618;28;20211;-74
2023/01/27 01:40:42;;;;;;;16.63;15.00;;;;;;;0.09;100.00;91902.75;5008041;28;20223;-74
2023/01/27 01:43:14;;;;;;;19.90;16.00;;;;;;;0.15;100.00;91896.66;5008812;28;20948;-74
2023/01/27 01:45:40;;;;;;;19.03;17.03;;;;;;;0.03;100.00;91894.16;5008682;28;20234;-74
2023/01/27 01:48:12;;;;;;;19.07;17.03;;;;;;;0.01;100.00;91885.16;5009521;28;20188;-74
2023/01/27 01:50:41;;;;;;;19.17;16.70;;;;;;;-0.03;100.00;91876.34;5008118;28;20359;-74
2023/01/27 01:53:09;;;;;;;17.60;15.87;;;;;;;0.09;100.00;91884.78;5011658;28;20202;-75
2023/01/27 01:55:36;;;;;;;18.30;16.50;;;;;;;0.18;100.00;91888.50;5011513;28;20253;-75
2023/01/27 01:58:05;;;;;;;20.30;17.17;;;;;;;-0.26;100.00;91838.03;5013373;28;20191;-75
2023/01/27 02:00:31;;;;;;;17.83;14.90;;;;;;;0.06;100.00;91874.19;5012713;28;20234;-75
2023/01/27 02:02:56;;;;;;;19.00;14.80;;;;;;;0.15;100.00;91863.31;5012464;28;20187;-74
2023/01/27 02:05:33;;;;;;;16.97;15.27;;;;;;;-0.01;100.00;91853.81;5012856;28;20235;-74
2023/01/27 02:08:26;;;;;;;17.23;15.23;;;;;;;0.04;100.00;91853.91;5011638;28;20230;-74
2023/01/27 02:10:53;;;;;;;15.90;14.37;;;;;;;-0.08;100.00;91848.09;5012413;28;21118;-75
2023/01/27 02:13:19;;;;;;;16.60;15.17;;;;;;;-0.35;100.00;91795.84;5012790;28;20255;-75
2023/01/27 02:15:46;;;;;;;16.90;15.20;;;;;;;-0.05;100.00;91837.34;5012534;28;20286;-75
2023/01/27 02:18:14;;;;;;;15.80;14.27;;;;;;;0.05;100.00;91816.97;5012734;28;20200;-74
2023/01/27 02:20:44;;;;;;;15.50;13.90;;;;;;;-0.03;100.00;91830.19;5011026;28;20219;-75
2023/01/27 02:23:36;;;;;;;15.17;13.67;;;;;;;-0.12;100.00;91836.72;5012036;28;20187;-75
2023/01/27 02:26:01;;;;;;;16.63;14.93;;;;;;;-0.02;100.00;91826.63;5011694;28;20241;-75
2023/01/27 02:28:29;;;;;;;16.30;14.60;;;;;;;-0.10;100.00;91827.81;5012668;28;20259;-75
2023/01/27 02:30:55;;;;;;;18.20;13.97;;;;;;;-0.29;100.00;91831.59;5012854;28;20302;-74
2023/01/27 02:33:24;;;;;;;16.27;14.67;;;;;;;-0.17;100.00;91831.50;5012012;28;20210;-74
2023/01/27 02:36:09;;;;;;;16.77;15.30;;;;;;;-0.18;100.00;91807.66;5012374;28;20298;-73
2023/01/27 02:38:42;;;;;;;16.40;14.83;;;;;;;-0.07;100.00;91821.41;5013201;28;20191;-75
2023/01/27 02:41:16;;;;;;;20.00;16.20;;;;;;;0.03;100.00;91816.44;5012271;28;20239;-74
2023/01/27 02:43:41;;;;;;;18.00;16.20;;;;;;;0.08;100.00;91831.91;5011424;28;20210;-74
2023/01/27 02:46:06;;;;;;;18.17;16.20;;;;;;;-0.02;100.00;91829.94;5011497;28;20804;-74
2023/01/27 02:48:32;;;;;;;17.60;15.90;;;;;;;0.22;100.00;91842.63;5012209;28;20203;-74
2023/01/27 02:51:00;;;;;;;18.10;16.27;;;;;;;0.21;100.00;91841.84;5011604;28;20255;-74
2023/01/27 02:53:26;;;;;;;17.73;15.63;;;;;;;0.08;100.00;91842.16;5011522;28;20194;-75
2023/01/27 02:55:54;;;;;;;17.27;15.43;;;;;;;0.10;100.00;91841.91;5011138;28;20781;-75
2023/01/27 02:58:19;;;;;;;17.80;15.97;;;;;;;0.19;100.00;91833.59;5012432;28;20246;-74
2023/01/27 03:00:47;;;;;;;16.80;15.17;;;;;;;0.12;100.00;91817.59;5011354;28;20223;-75
2023/01/27 03:03:15;;;;;;;20.53;15.77;;;;;;;0.26;100.00;91823.19;5012387;28;20192;-75
2023/01/27 03:05:41;;;;;;;18.17;16.33;;;;;;;0.12;100.00;91812.47;5012026;28;20219;-76
2023/01/27 03:08:09;;;;;;;16.17;14.43;;;;;;;0.18;100.00;91808.97;5012353;28;20184;-75
2023/01/27 03:10:37;;;;;;;16.73;15.07;;;;;;;0.24;100.00;91820.84;5010708;28;20223;-75
2023/01/27 03:13:05;;;;;;;16.50;14.93;;;;;;;0.23;100.00;91814.16;5011711;28;20787;-75
2023/01/27 03:18:15;;;;;;;16.33;14.70;;;;;;;0.08;100.00;91805.47;5011645;28;20217;-75
2023/01/27 03:20:46;;;;;;;14.87;13.60;;;;;;;0.05;100.00;91796.44;5011614;28;20254;-75
2023/01/27 03:23:15;;;;;;;15.97;14.47;;;;;;;0.00;100.00;91794.59;5011193;28;20187;-76
2023/01/27 03:25:43;;;;;;;15.37;13.87;;;;;;;-0.05;100.00;91774.00;5010615;28;20227;-75
2023/01/27 03:28:09;;;;;;;15.53;14.20;;;;;;;0.00;100.00;91791.28;5011629;28;20179;-74
2023/01/27 03:30:37;;;;;;;15.30;13.80;;;;;;;-0.14;100.00;91793.34;5011557;28;20227;-75
2023/01/27 03:33:09;;;;;;;13.83;12.47;;;;;;;-0.23;100.00;91786.28;5011971;28;20296;-75
2023/01/27 03:35:37;;;;;;;15.00;13.80;;;;;;;0.02;100.00;91778.97;5010062;28;20286;-75
2023/01/27 03:47:38;;;;;;;16.10;14.57;;;;;;;0.00;100.00;91752.78;5009925;28;20202;-75
2023/01/27 03:50:10;;;;;;;15.40;14.07;;;;;;;0.05;100.00;91754.66;5011000;28;20227;-75
2023/01/27 03:52:38;;;;;;;17.53;15.80;;;;;;;-0.04;100.00;91751.69;5010733;28;20250;-75
2023/01/27 03:55:08;;;;;;;15.53;14.00;;;;;;;0.26;100.00;91762.38;5009939;28;20231;-75
2023/01/27 03:57:38;;;;;;;14.37;12.97;;;;;;;-0.05;100.00;91752.72;5011083;28;20203;-75
2023/01/27 04:00:04;;;;;;;13.30;12.10;;;;;;;0.10;100.00;91759.81;5010669;28;20255;-76
2023/01/27 04:08:05;;;;;;;16.03;14.07;;;;;;;0.14;100.00;91789.91;5011027;28;20229;-75
2023/01/27 04:13:52;;;;;;;14.17;13.03;;;;;;;0.13;100.00;91823.50;5009643;28;20222;-75
2023/01/27 04:16:27;;;;;;;16.10;14.60;;;;;;;0.09;100.00;91815.50;5010765;28;20191;-75
2023/01/27 04:18:56;;;;;;;14.70;13.60;;;;;;;0.10;100.00;91840.16;5009465;28;20198;-75
2023/01/27 04:21:25;;;;;;;13.87;12.77;;;;;;;-0.02;100.00;91811.25;5010562;28;20216;-75
2023/01/27 04:23:54;;;;;;;14.73;13.20;;;;;;;-0.03;100.00;91830.19;5009684;28;20211;-75
2023/01/27 04:26:20;;;;;;;14.07;12.90;;;;;;;0.04;100.00;91835.94;5008867;28;20216;-76
2023/01/27 04:28:52;;;;;;;13.23;12.23;;;;;;;-0.03;100.00;91841.22;5009403;28;20187;-75
2023/01/27 04:41:51;;;;;;;14.87;13.57;;;;;;;-0.16;100.00;91856.16;5010080;28;20230;-75
2023/01/27 04:44:22;;;;;;;13.93;12.73;;;;;;;-0.18;100.00;91845.34;5009282;28;20229;-75
